Akashimaru — JD2459 — position and weather

sailwx.info

Track history (hours):
 
Tides and Currents Weather Stations Pressure Air Temp Water Temp Dewpoint Dewpoint Depression Visibility Wind Speed Wind Dir Waves Ship Positions

Akashimaru

Last reported at 2018-Jul-17 22:30 UTC. Time now 2018-Jul-17 22:49 UTC.
Position N 35°28' E 139°40'.

Length 30 m; draft 3.9 m.

Type: Tug. MMSI: 431000267.

Date/timePositionNaut miles runAvg speedWind from/ knotsBaromVisibWave heightAir tempDewpointWater temp
2018-Jul-17 22:30N 35°28' E 139°40'1 1.4
2018-Jul-17 22:01N 35°27' E 139°41'1 1.6
2018-Jul-17 21:30N 35°27' E 139°42'2 3.7
2018-Jul-17 21:01N 35°25' E 139°43'3 6.3
2018-Jul-17 20:31N 35°27' E 139°40'0 0.1
2018-Jul-17 20:01N 35°27' E 139°40'0 0.0
2018-Jul-17 19:30N 35°27' E 139°40'0 0.0
2018-Jul-17 18:58N 35°27' E 139°40'0 0.0
2018-Jul-17 18:29N 35°27' E 139°40'0 0.0
2018-Jul-17 17:59N 35°27' E 139°40'0 0.0
2018-Jul-17 17:31N 35°27' E 139°40'0 0.0
2018-Jul-17 16:59N 35°27' E 139°40'0 0.0
2018-Jul-17 16:31N 35°27' E 139°40'0 0.0
2018-Jul-17 15:59N 35°27' E 139°40'0 0.0
2018-Jul-17 15:31N 35°27' E 139°40'0 0.0
2018-Jul-17 15:00N 35°27' E 139°40'0 0.0
2018-Jul-17 14:29N 35°27' E 139°40'0 0.0
2018-Jul-17 13:58N 35°27' E 139°40'0 0.0
2018-Jul-17 13:30N 35°27' E 139°40'0 0.0
2018-Jul-17 13:00N 35°27' E 139°40'0 0.0
2018-Jul-17 12:30N 35°27' E 139°40'0 0.0
2018-Jul-17 12:01N 35°27' E 139°40'0 0.0
2018-Jul-17 11:30N 35°27' E 139°40'0 0.0
2018-Jul-17 11:01N 35°27' E 139°40'0 0.0
2018-Jul-17 10:30N 35°27' E 139°40'0 0.0
2018-Jul-17 09:56N 35°27' E 139°40'1 3.4
2018-Jul-17 09:31N 35°28' E 139°41'1 2.1
2018-Jul-17 09:00N 35°28' E 139°42'1 2.0
2018-Jul-17 08:30N 35°27' E 139°43'1 1.2
2018-Jul-17 08:01N 35°27' E 139°43'1 2.3
2018-Jul-17 07:30N 35°27' E 139°42'0 0.0
2018-Jul-17 07:01N 35°27' E 139°42'0 0.0
2018-Jul-17 06:31N 35°27' E 139°42'0 0.0
2018-Jul-17 06:01N 35°27' E 139°42'0 0.0
2018-Jul-17 05:30N 35°27' E 139°42'0 0.0
2018-Jul-17 05:01N 35°27' E 139°42'1 2.0
2018-Jul-17 04:30N 35°28' E 139°43'1 2.0
2018-Jul-17 04:01N 35°28' E 139°44'0 0.0
2018-Jul-17 03:29N 35°28' E 139°44'0 0.1
2018-Jul-17 02:58N 35°28' E 139°44'1 2.1
2018-Jul-17 02:30N 35°27' E 139°44'1 1.6
2018-Jul-17 02:01N 35°27' E 139°45'1 2.7
2018-Jul-17 01:30N 35°28' E 139°45'0 0.1
2018-Jul-17 01:00N 35°28' E 139°45'0 0.0
2018-Jul-17 00:31N 35°28' E 139°45'3 2.9
2018-Jul-16 23:30N 35°31' E 139°46'0 0.0
2018-Jul-16 23:00N 35°31' E 139°46'2 4.0
2018-Jul-16 22:31N 35°30' E 139°44'5 9.2
2018-Jul-16 22:01N 35°27' E 139°40'0 0.2
2018-Jul-16 21:31N 35°27' E 139°40'0 0.0
2018-Jul-16 21:01N 35°27' E 139°40'0 0.0
2018-Jul-16 20:31N 35°27' E 139°40'0 0.0
2018-Jul-16 20:01N 35°27' E 139°40'0 0.0
2018-Jul-16 19:30N 35°27' E 139°40'0 0.0
2018-Jul-16 19:01N 35°27' E 139°40'0 0.0
2018-Jul-16 18:31N 35°27' E 139°40'0 0.0
2018-Jul-16 18:01N 35°27' E 139°40'0 0.0
2018-Jul-16 17:31N 35°27' E 139°40'0 0.0
2018-Jul-16 17:01N 35°27' E 139°40'0 0.0
2018-Jul-16 16:30N 35°27' E 139°40'0 0.0
2018-Jul-16 16:01N 35°27' E 139°40'0 0.0
2018-Jul-16 15:31N 35°27' E 139°40'0 0.0
2018-Jul-16 15:01N 35°27' E 139°40'0 0.0
2018-Jul-16 14:31N 35°27' E 139°40'0 0.0
2018-Jul-16 14:01N 35°27' E 139°40'0 0.0
2018-Jul-16 13:31N 35°27' E 139°40'0 0.0
2018-Jul-16 13:01N 35°27' E 139°40'0 0.0
2018-Jul-16 12:30N 35°27' E 139°40'0 0.0
2018-Jul-16 12:01N 35°27' E 139°40'0 0.0
2018-Jul-16 11:31N 35°27' E 139°40'0 0.0
2018-Jul-16 11:00N 35°27' E 139°40'0 0.0
2018-Jul-16 10:31N 35°27' E 139°40'0 0.0
2018-Jul-16 10:01N 35°27' E 139°40'0 0.0
2018-Jul-16 09:31N 35°27' E 139°40'0 0.0
2018-Jul-16 09:01N 35°27' E 139°40'0 0.0
2018-Jul-16 08:31N 35°27' E 139°40'0 0.0
2018-Jul-16 08:01N 35°27' E 139°40'0 0.0
2018-Jul-16 07:31N 35°27' E 139°40'0 0.0
2018-Jul-16 07:00N 35°27' E 139°40'0 0.0
2018-Jul-16 06:31N 35°27' E 139°40'0 0.0
2018-Jul-16 06:00N 35°27' E 139°40'0 0.0
2018-Jul-16 05:31N 35°27' E 139°40'0 0.0
2018-Jul-16 05:01N 35°27' E 139°40'0 0.0
2018-Jul-16 04:31N 35°27' E 139°40'0 0.0
2018-Jul-16 04:00N 35°27' E 139°40'0 0.0
2018-Jul-16 03:31N 35°27' E 139°40'0 0.0
2018-Jul-16 03:00N 35°27' E 139°40'0 0.0
2018-Jul-16 02:31N 35°27' E 139°40'0 0.0
2018-Jul-16 02:00N 35°27' E 139°40'0 0.0
2018-Jul-16 01:31N 35°27' E 139°40'0 0.0
2018-Jul-16 01:01N 35°27' E 139°40'0 0.0
2018-Jul-16 00:31N 35°27' E 139°40'0 0.0
2018-Jul-15 23:59N 35°27' E 139°40'0 0.0
2018-Jul-15 23:31N 35°27' E 139°40'0 0.0
2018-Jul-15 23:01N 35°27' E 139°40'0 0.0
2018-Jul-15 22:30N 35°27' E 139°40'0 0.0
2018-Jul-15 22:01N 35°27' E 139°40'0 0.0
2018-Jul-15 21:31N 35°27' E 139°40'0 0.0
2018-Jul-15 21:01N 35°27' E 139°40'0 0.0
2018-Jul-15 20:29N 35°27' E 139°40'0 0.0
2018-Jul-15 20:01N 35°27' E 139°40'0 0.0
2018-Jul-15 19:30N 35°27' E 139°40'0 0.0
2018-Jul-15 19:01N 35°27' E 139°40'0 0.0
2018-Jul-15 18:30N 35°27' E 139°40'0 0.0
2018-Jul-15 18:01N 35°27' E 139°40'0 0.0
2018-Jul-15 17:31N 35°27' E 139°40'0 0.0
2018-Jul-15 17:00N 35°27' E 139°40'0 0.0
2018-Jul-15 16:31N 35°27' E 139°40'0 0.0
2018-Jul-15 16:00N 35°27' E 139°40'0 0.0
2018-Jul-15 15:31N 35°27' E 139°40'0 0.0
2018-Jul-15 15:01N 35°27' E 139°40'0 0.0
2018-Jul-15 14:31N 35°27' E 139°40'0 0.0
2018-Jul-15 14:01N 35°27' E 139°40'0 0.0
2018-Jul-15 13:31N 35°27' E 139°40'0 0.0
2018-Jul-15 13:01N 35°27' E 139°40'0 0.0
2018-Jul-15 12:31N 35°27' E 139°40'0 0.0
2018-Jul-15 12:00N 35°27' E 139°40'0 0.0
2018-Jul-15 11:30N 35°27' E 139°40'0 0.0
2018-Jul-15 11:01N 35°27' E 139°40'0 0.0
2018-Jul-15 10:31N 35°27' E 139°40'0 0.0
2018-Jul-15 10:01N 35°27' E 139°40'0 0.0
2018-Jul-15 09:31N 35°27' E 139°40'0 0.0
2018-Jul-15 09:00N 35°27' E 139°40'0 0.0
2018-Jul-15 08:31N 35°27' E 139°40'0 0.0
2018-Jul-15 08:00N 35°27' E 139°40'0 0.0
2018-Jul-15 07:30N 35°27' E 139°40'0 0.0
2018-Jul-15 07:01N 35°27' E 139°40'0 0.0
2018-Jul-15 06:30N 35°27' E 139°40'0 0.0
2018-Jul-15 06:01N 35°27' E 139°40'0 0.0
2018-Jul-15 05:30N 35°27' E 139°40'0 0.0
2018-Jul-15 05:01N 35°27' E 139°40'0 0.0
2018-Jul-15 04:30N 35°27' E 139°40'0 0.0
2018-Jul-15 04:01N 35°27' E 139°40'0 0.0
2018-Jul-15 03:31N 35°27' E 139°40'0 0.0
2018-Jul-15 03:01N 35°27' E 139°40'0 0.0
2018-Jul-15 02:31N 35°27' E 139°40'0 0.0
2018-Jul-15 02:01N 35°27' E 139°40'0 0.0
2018-Jul-15 01:31N 35°27' E 139°40'0 0.0
2018-Jul-15 01:01N 35°27' E 139°40'0 0.0
2018-Jul-15 00:30N 35°27' E 139°40'0 0.0
2018-Jul-15 00:01N 35°27' E 139°40'0 0.0
2018-Jul-14 23:31N 35°27' E 139°40'1 2.0
2018-Jul-14 23:01N 35°26' E 139°41'1 2.2
2018-Jul-14 22:30N 35°26' E 139°42'2 4.8
2018-Jul-14 22:00N 35°27' E 139°45'1 2.9
2018-Jul-14 21:29N 35°28' E 139°44'1 2.0
2018-Jul-14 21:00N 35°27' E 139°43'2 3.5
2018-Jul-14 20:29N 35°28' E 139°41'1 1.2
2018-Jul-14 20:01N 35°28' E 139°40'0 0.0
2018-Jul-14 19:31N 35°28' E 139°40'0 0.0
2018-Jul-14 19:01N 35°28' E 139°40'0 0.0
2018-Jul-14 18:31N 35°28' E 139°40'0 0.0
2018-Jul-14 18:00N 35°28' E 139°40'0 0.0
2018-Jul-14 17:30N 35°28' E 139°40'2 3.0
2018-Jul-14 17:00N 35°26' E 139°41'0 0.1
2018-Jul-14 16:31N 35°26' E 139°41'1 2.1
2018-Jul-14 16:01N 35°27' E 139°41'0 0.3
2018-Jul-14 15:30N 35°27' E 139°41'1 1.3
2018-Jul-14 15:01N 35°28' E 139°40'0 0.0
2018-Jul-14 14:30N 35°28' E 139°40'0 0.0
2018-Jul-14 13:31N 35°28' E 139°40'0 0.0
2018-Jul-14 13:01N 35°28' E 139°40'0 0.0
2018-Jul-14 12:31N 35°28' E 139°40'1 1.7
2018-Jul-14 12:01N 35°27' E 139°41'0 0.7
2018-Jul-14 11:31N 35°27' E 139°41'1 2.0
2018-Jul-14 11:01N 35°27' E 139°42'0 0.6
2018-Jul-14 10:31N 35°27' E 139°42'0 0.0
2018-Jul-14 10:01N 35°27' E 139°42'1 1.7
2018-Jul-14 09:30N 35°28' E 139°42'0 0.9
2018-Jul-14 09:00N 35°28' E 139°41'1 1.4
2018-Jul-14 08:31N 35°27' E 139°42'0 0.0
2018-Jul-14 08:00N 35°27' E 139°42'0 0.1
2018-Jul-14 07:31N 35°27' E 139°42'1 2.1
2018-Jul-14 07:01N 35°27' E 139°41'0 0.2
2018-Jul-14 06:31N 35°27' E 139°41'1 1.2
2018-Jul-14 06:01N 35°28' E 139°41'1 2.7
2018-Jul-14 05:31N 35°27' E 139°39'0 0.7
2018-Jul-14 05:01N 35°27' E 139°39'0 0.2
2018-Jul-14 04:30N 35°27' E 139°39'1 1.5
2018-Jul-14 04:01N 35°27' E 139°40'0 0.0
2018-Jul-14 03:30N 35°27' E 139°40'0 0.0
2018-Jul-14 03:00N 35°27' E 139°40'0 0.0
2018-Jul-14 02:30N 35°27' E 139°40'0 0.0
2018-Jul-14 01:59N 35°27' E 139°40'0 0.0
2018-Jul-14 01:31N 35°27' E 139°40'0 0.0
2018-Jul-14 00:59N 35°27' E 139°40'0 0.0
2018-Jul-14 00:29N 35°27' E 139°40'0 0.0
2018-Jul-14 00:01N 35°27' E 139°40'0 0.0
2018-Jul-13 23:30N 35°27' E 139°40'0 0.0
2018-Jul-13 22:59N 35°27' E 139°40'0 0.0
2018-Jul-13 22:31N 35°27' E 139°40'0 0.0
2018-Jul-13 22:01N 35°27' E 139°40'0 0.0
2018-Jul-13 21:30N 35°27' E 139°40'0 0.0
2018-Jul-13 21:00N 35°27' E 139°40'0 0.0
2018-Jul-13 20:31N 35°27' E 139°40'0 0.0
2018-Jul-13 20:01N 35°27' E 139°40'0 0.0
2018-Jul-13 19:31N 35°27' E 139°40'0 0.0
2018-Jul-13 19:00N 35°27' E 139°40'0 0.0
2018-Jul-13 18:29N 35°27' E 139°40'0 0.0
2018-Jul-13 18:00N 35°27' E 139°40'0 0.0
2018-Jul-13 17:29N 35°27' E 139°40'0 0.0
2018-Jul-13 17:01N 35°27' E 139°40'0 0.0
2018-Jul-13 16:31N 35°27' E 139°40'0 0.0
2018-Jul-13 16:00N 35°27' E 139°40'0 0.0
2018-Jul-13 15:29N 35°27' E 139°40'0 0.0
2018-Jul-13 14:59N 35°27' E 139°40'0 0.0
2018-Jul-13 14:30N 35°27' E 139°40'0 0.0
2018-Jul-13 13:31N 35°27' E 139°40'0 0.0
2018-Jul-13 13:00N 35°27' E 139°40'0 0.0
2018-Jul-13 12:29N 35°27' E 139°40'0 0.0
2018-Jul-13 12:00N 35°27' E 139°40'0 0.0
2018-Jul-13 11:29N 35°27' E 139°40'0 0.0
2018-Jul-13 11:00N 35°27' E 139°40'0 0.0
2018-Jul-13 10:30N 35°27' E 139°40'0 0.0
2018-Jul-13 10:01N 35°27' E 139°40'0 0.0
2018-Jul-13 09:28N 35°27' E 139°40'0 0.0
2018-Jul-13 09:00N 35°27' E 139°40'0 0.0
2018-Jul-13 08:30N 35°27' E 139°40'0 0.0
2018-Jul-13 08:01N 35°27' E 139°40'0 0.0
2018-Jul-13 07:31N 35°27' E 139°40'0 0.0
2018-Jul-13 07:00N 35°27' E 139°40'0 0.0
2018-Jul-13 06:29N 35°27' E 139°40'0 0.0
2018-Jul-13 06:01N 35°27' E 139°40'1 2.5
2018-Jul-13 05:31N 35°28' E 139°40'1 2.4
2018-Jul-13 05:01N 35°27' E 139°39'0 0.0
2018-Jul-13 04:30N 35°27' E 139°39'0 0.0
2018-Jul-13 04:01N 35°27' E 139°39'0 0.0
2018-Jul-13 03:31N 35°27' E 139°39'0 0.1
2018-Jul-13 03:01N 35°27' E 139°39'4 8.8
2018-Jul-13 02:30N 35°30' E 139°44'1 1.7
2018-Jul-13 02:01N 35°30' E 139°45'0 0.9
2018-Jul-13 01:30N 35°30' E 139°44'2 4.9
2018-Jul-13 01:01N 35°28' E 139°42'4 6.9
2018-Jul-13 00:30N 35°28' E 139°46'1 2.2
2018-Jul-13 00:00N 35°29' E 139°47'1 1.0
2018-Jul-12 23:29N 35°29' E 139°46'1 2.6
2018-Jul-12 23:00N 35°30' E 139°47'1 2.9
2018-Jul-12 22:30N 35°32' E 139°46'2 4.3
2018-Jul-12 22:01N 35°30' E 139°44'5 9.1
2018-Jul-12 21:31N 35°27' E 139°40'0 0.1
2018-Jul-12 21:01N 35°27' E 139°40'0 0.0
2018-Jul-12 20:31N 35°27' E 139°40'0 0.0
2018-Jul-12 20:00N 35°27' E 139°40'0 0.0
2018-Jul-12 19:31N 35°27' E 139°40'0 0.0
2018-Jul-12 19:00N 35°27' E 139°40'0 0.0
2018-Jul-12 18:30N 35°27' E 139°40'0 0.0
2018-Jul-12 18:01N 35°27' E 139°40'0 0.0
2018-Jul-12 17:30N 35°27' E 139°40'0 0.0
2018-Jul-12 17:01N 35°27' E 139°40'0 0.0
2018-Jul-12 16:31N 35°27' E 139°40'0 0.0
2018-Jul-12 15:58N 35°27' E 139°40'0 0.0
2018-Jul-12 15:31N 35°27' E 139°40'0 0.0
2018-Jul-12 15:00N 35°27' E 139°40'0 0.0
2018-Jul-12 14:30N 35°27' E 139°40'0 0.0
2018-Jul-12 13:59N 35°27' E 139°40'0 0.0
2018-Jul-12 13:31N 35°27' E 139°40'0 0.0
2018-Jul-12 13:01N 35°27' E 139°40'0 0.0
2018-Jul-12 12:31N 35°27' E 139°40'0 0.0
2018-Jul-12 12:00N 35°27' E 139°40'0 0.0
2018-Jul-12 11:31N 35°27' E 139°40'0 0.0
2018-Jul-12 11:00N 35°27' E 139°40'0 0.0
2018-Jul-12 10:31N 35°27' E 139°40'0 0.0
2018-Jul-12 10:00N 35°27' E 139°40'0 0.0
2018-Jul-12 09:31N 35°27' E 139°40'0 0.0
2018-Jul-12 09:01N 35°27' E 139°40'0 0.0
2018-Jul-12 08:30N 35°27' E 139°40'0 0.0
2018-Jul-12 08:00N 35°27' E 139°40'0 0.9
2018-Jul-12 07:30N 35°27' E 139°40'5 9.2
2018-Jul-12 07:01N 35°30' E 139°44'1 2.2
2018-Jul-12 06:30N 35°30' E 139°46'3 5.0
2018-Jul-12 06:01N 35°29' E 139°43'0 0.0
2018-Jul-12 05:30N 35°29' E 139°43'1 1.3
2018-Jul-12 05:01N 35°29' E 139°42'1 2.9
2018-Jul-12 04:31N 35°28' E 139°42'0 0.0
2018-Jul-12 04:00N 35°28' E 139°42'0 1.0
2018-Jul-12 03:30N 35°28' E 139°42'1 1.9
2018-Jul-12 03:00N 35°27' E 139°43'0 0.8
2018-Jul-12 02:31N 35°27' E 139°43'2 3.9
2018-Jul-12 02:01N 35°28' E 139°40'0 0.0
2018-Jul-12 01:31N 35°28' E 139°40'0 0.0
2018-Jul-12 01:00N 35°28' E 139°40'0 0.0
2018-Jul-12 00:31N 35°28' E 139°40'0 0.0
2018-Jul-12 00:01N 35°28' E 139°40'0 0.0
2018-Jul-11 23:31N 35°28' E 139°40'1 2.8
2018-Jul-11 23:01N 35°27' E 139°39'4 8.0
2018-Jul-11 22:31N 35°28' E 139°44'4 7.3
2018-Jul-11 22:00N 35°30' E 139°47'2 3.2
2018-Jul-11 21:30N 35°32' E 139°46'2 5.0
2018-Jul-11 21:00N 35°30' E 139°44'4 8.6
2018-Jul-11 20:30N 35°27' E 139°40'0 0.1
2018-Jul-11 20:01N 35°27' E 139°40'0 0.0
2018-Jul-11 19:31N 35°27' E 139°40'0 0.0
2018-Jul-11 19:01N 35°27' E 139°40'0 0.0
2018-Jul-11 18:31N 35°27' E 139°40'0 0.0
2018-Jul-11 18:01N 35°27' E 139°40'0 0.0
2018-Jul-11 17:31N 35°27' E 139°40'0 0.0
2018-Jul-11 17:01N 35°27' E 139°40'0 0.0
2018-Jul-11 16:31N 35°27' E 139°40'0 0.0
2018-Jul-11 16:01N 35°27' E 139°40'0 0.0
2018-Jul-11 15:31N 35°27' E 139°40'0 0.0
2018-Jul-11 15:01N 35°27' E 139°40'0 0.0
2018-Jul-11 14:31N 35°27' E 139°40'0 0.0
2018-Jul-11 14:01N 35°27' E 139°40'0 0.0
2018-Jul-11 13:31N 35°27' E 139°40'0 0.0
2018-Jul-11 13:01N 35°27' E 139°40'0 0.0
2018-Jul-11 12:31N 35°27' E 139°40'0 0.0
2018-Jul-11 12:01N 35°27' E 139°40'0 0.0
2018-Jul-11 11:31N 35°27' E 139°40'0 0.0
2018-Jul-11 11:01N 35°27' E 139°40'0 0.0
2018-Jul-11 10:31N 35°27' E 139°40'0 0.0
2018-Jul-11 10:01N 35°27' E 139°40'0 0.0
2018-Jul-11 09:31N 35°27' E 139°40'0 0.0
2018-Jul-11 09:01N 35°27' E 139°40'0 0.0
2018-Jul-11 08:30N 35°27' E 139°40'0 0.0
2018-Jul-11 08:00N 35°27' E 139°40'0 0.0
2018-Jul-11 07:31N 35°27' E 139°40'0 0.0
2018-Jul-11 07:00N 35°27' E 139°40'0 0.0
2018-Jul-11 06:31N 35°27' E 139°40'0 0.0
2018-Jul-11 06:01N 35°27' E 139°40'0 0.5
2018-Jul-11 05:31N 35°27' E 139°40'1 2.9
2018-Jul-11 05:00N 35°27' E 139°41'2 3.8
2018-Jul-11 04:30N 35°26' E 139°43'1 2.4
2018-Jul-11 04:01N 35°27' E 139°42'0 0.8
2018-Jul-11 03:31N 35°27' E 139°42'1 2.5
2018-Jul-11 03:00N 35°28' E 139°42'4 7.1
2018-Jul-11 02:30N 35°30' E 139°45'0 0.5
2018-Jul-11 02:00N 35°30' E 139°45'2 4.6
2018-Jul-11 01:31N 35°29' E 139°43'2 3.6
2018-Jul-11 01:01N 35°27' E 139°42'0 0.0
2018-Jul-11 00:31N 35°27' E 139°42'0 0.4
2018-Jul-11 00:01N 35°28' E 139°42'3 5.5
2018-Jul-10 23:29N 35°30' E 139°44'0 0.5
2018-Jul-10 23:00N 35°30' E 139°44'2 4.6
2018-Jul-10 22:31N 35°28' E 139°42'3 6.3
2018-Jul-10 22:01N 35°27' E 139°46'1 1.8
2018-Jul-10 21:31N 35°28' E 139°47'2 3.2
2018-Jul-10 21:01N 35°27' E 139°45'4 8.3
2018-Jul-10 20:30N 35°27' E 139°40'0 0.1
2018-Jul-10 20:00N 35°27' E 139°40'0 0.0
2018-Jul-10 19:29N 35°27' E 139°40'0 0.0
2018-Jul-10 19:00N 35°27' E 139°40'0 0.0
2018-Jul-10 18:31N 35°27' E 139°40'0 0.0
2018-Jul-10 18:01N 35°27' E 139°40'0 0.0
2018-Jul-10 17:31N 35°27' E 139°40'0 0.0
2018-Jul-10 17:01N 35°27' E 139°40'0 0.0
2018-Jul-10 16:30N 35°27' E 139°40'0 0.0
2018-Jul-10 16:01N 35°27' E 139°40'0 0.0
2018-Jul-10 15:31N 35°27' E 139°40'0 0.0
2018-Jul-10 15:01N 35°27' E 139°40'0 0.0
2018-Jul-10 14:31N 35°27' E 139°40'0 0.0
2018-Jul-10 14:01N 35°27' E 139°40'0 0.0
2018-Jul-10 13:31N 35°27' E 139°40'0 0.0
2018-Jul-10 12:59N 35°27' E 139°40'0 0.0
2018-Jul-10 12:31N 35°27' E 139°40'0 0.0
2018-Jul-10 12:00N 35°27' E 139°40'0 0.0
2018-Jul-10 11:31N 35°27' E 139°40'0 0.0
2018-Jul-10 11:01N 35°27' E 139°40'0 0.0
2018-Jul-10 10:31N 35°27' E 139°40'0 0.0
2018-Jul-10 10:01N 35°27' E 139°40'0 0.0
2018-Jul-10 09:30N 35°27' E 139°40'2 3.7
2018-Jul-10 09:01N 35°29' E 139°39'0 0.3
2018-Jul-10 08:30N 35°28' E 139°39'0 0.0
2018-Jul-10 08:00N 35°28' E 139°39'2 3.6
2018-Jul-10 07:31N 35°27' E 139°40'0 0.0
2018-Jul-10 07:01N 35°27' E 139°40'0 0.0
2018-Jul-10 06:31N 35°27' E 139°40'0 0.0
2018-Jul-10 06:01N 35°27' E 139°40'0 0.0
2018-Jul-10 05:30N 35°27' E 139°40'3 6.3
2018-Jul-10 05:01N 35°29' E 139°42'4 8.4
2018-Jul-10 04:30N 35°30' E 139°48'2 3.0
2018-Jul-10 04:01N 35°31' E 139°46'2 4.5
2018-Jul-10 03:30N 35°30' E 139°44'3 6.8
2018-Jul-10 03:00N 35°28' E 139°40'0 0.0
2018-Jul-10 02:31N 35°28' E 139°40'0 0.0
2018-Jul-10 02:00N 35°28' E 139°40'0 0.0
2018-Jul-10 01:30N 35°28' E 139°40'0 0.0
2018-Jul-10 01:01N 35°28' E 139°40'0 0.0
2018-Jul-10 00:31N 35°28' E 139°40'1 2.9
2018-Jul-10 00:01N 35°27' E 139°39'4 7.9
2018-Jul-09 23:30N 35°29' E 139°43'1 2.0
2018-Jul-09 23:01N 35°30' E 139°44'1 2.9
2018-Jul-09 22:30N 35°29' E 139°42'3 6.8
2018-Jul-09 22:00N 35°26' E 139°44'2 5.0
2018-Jul-09 21:30N 35°27' E 139°41'1 3.0
2018-Jul-09 21:01N 35°27' E 139°40'0 0.1
2018-Jul-09 20:31N 35°27' E 139°40'0 0.0
2018-Jul-09 20:01N 35°27' E 139°40'0 0.0
2018-Jul-09 19:31N 35°27' E 139°40'0 0.0
2018-Jul-09 19:01N 35°27' E 139°40'0 0.0
2018-Jul-09 18:30N 35°27' E 139°40'0 0.0
2018-Jul-09 18:00N 35°27' E 139°40'0 0.0
2018-Jul-09 17:30N 35°27' E 139°40'0 0.0
2018-Jul-09 17:00N 35°27' E 139°40'0 0.0
2018-Jul-09 16:31N 35°27' E 139°40'0 0.0
2018-Jul-09 16:01N 35°27' E 139°40'0 0.0
2018-Jul-09 15:31N 35°27' E 139°40'0 0.0
2018-Jul-09 15:01N 35°27' E 139°40'0 0.0
2018-Jul-09 14:30N 35°27' E 139°40'0 0.0
2018-Jul-09 14:01N 35°27' E 139°40'0 0.0
2018-Jul-09 13:31N 35°27' E 139°40'0 0.0
2018-Jul-09 13:01N 35°27' E 139°40'0 0.0
2018-Jul-09 12:31N 35°27' E 139°40'0 0.0
2018-Jul-09 12:01N 35°27' E 139°40'0 0.8
2018-Jul-09 11:30N 35°27' E 139°40'2 3.4
2018-Jul-09 11:01N 35°29' E 139°40'1 1.1
2018-Jul-09 10:31N 35°29' E 139°40'1 3.0
2018-Jul-09 10:01N 35°27' E 139°39'0 0.0
2018-Jul-09 09:30N 35°27' E 139°39'3 6.9
2018-Jul-09 09:00N 35°24' E 139°42'3 6.1
2018-Jul-09 08:30N 35°24' E 139°38'0 0.0
2018-Jul-09 08:01N 35°24' E 139°38'0 0.5
2018-Jul-09 07:30N 35°24' E 139°38'0 0.9
2018-Jul-09 07:01N 35°23' E 139°38'0 0.3
2018-Jul-09 06:29N 35°23' E 139°38'0 0.3
2018-Jul-09 06:00N 35°23' E 139°38'1 1.1
2018-Jul-09 05:31N 35°24' E 139°39'4 7.3
2018-Jul-09 05:00N 35°27' E 139°41'1 2.3
2018-Jul-09 04:31N 35°28' E 139°40'0 0.0
2018-Jul-09 04:01N 35°28' E 139°40'0 0.0
2018-Jul-09 03:31N 35°28' E 139°40'0 0.0
2018-Jul-09 03:00N 35°28' E 139°40'0 0.0
2018-Jul-09 02:30N 35°28' E 139°40'0 0.0
2018-Jul-09 02:00N 35°28' E 139°40'0 0.0
2018-Jul-09 01:30N 35°28' E 139°40'1 2.8
2018-Jul-09 01:00N 35°29' E 139°39'3 5.7
2018-Jul-09 00:31N 35°27' E 139°42'1 2.8
2018-Jul-09 00:01N 35°28' E 139°41'0 0.0
2018-Jul-08 23:31N 35°28' E 139°41'2 3.5
2018-Jul-08 23:00N 35°28' E 139°39'0 0.0
2018-Jul-08 22:30N 35°29' E 139°39'1 2.2
2018-Jul-08 22:01N 35°28' E 139°40'2 3.3
2018-Jul-08 21:30N 35°27' E 139°42'0 0.2
2018-Jul-08 21:00N 35°27' E 139°41'1 2.6
2018-Jul-08 20:30N 35°27' E 139°40'0 0.0
2018-Jul-08 20:01N 35°27' E 139°40'0 0.0
2018-Jul-08 19:31N 35°27' E 139°40'0 0.0
2018-Jul-08 19:00N 35°27' E 139°40'0 0.0
2018-Jul-08 18:31N 35°27' E 139°40'0 0.0
2018-Jul-08 18:01N 35°27' E 139°40'0 0.0
2018-Jul-08 17:28N 35°27' E 139°40'0 0.0
2018-Jul-08 17:00N 35°27' E 139°40'0 0.0
2018-Jul-08 16:30N 35°27' E 139°40'0 0.0
2018-Jul-08 16:01N 35°27' E 139°40'0 0.0
2018-Jul-08 15:31N 35°27' E 139°40'0 0.0
2018-Jul-08 15:01N 35°27' E 139°40'0 0.0
2018-Jul-08 14:31N 35°27' E 139°40'0 0.0
2018-Jul-08 13:59N 35°27' E 139°40'0 0.0
2018-Jul-08 13:31N 35°27' E 139°40'0 0.0
2018-Jul-08 13:01N 35°27' E 139°40'0 0.0
2018-Jul-08 12:30N 35°27' E 139°40'0 0.0
2018-Jul-08 12:00N 35°27' E 139°40'0 0.0
2018-Jul-08 11:31N 35°27' E 139°40'0 0.0
2018-Jul-08 11:01N 35°27' E 139°40'0 0.0
2018-Jul-08 10:29N 35°27' E 139°40'0 0.0
2018-Jul-08 09:59N 35°27' E 139°40'0 0.0
2018-Jul-08 09:31N 35°27' E 139°40'0 0.7
2018-Jul-08 09:00N 35°27' E 139°40'4 7.4
2018-Jul-08 08:31N 35°24' E 139°41'2 4.3
2018-Jul-08 08:01N 35°25' E 139°39'0 0.5
2018-Jul-08 07:31N 35°24' E 139°39'2 3.1
2018-Jul-08 07:01N 35°23' E 139°41'0 0.9
2018-Jul-08 06:31N 35°23' E 139°41'4 7.6
2018-Jul-08 06:01N 35°27' E 139°41'1 2.6
2018-Jul-08 05:31N 35°28' E 139°40'0 0.0
2018-Jul-08 05:01N 35°28' E 139°40'0 0.0
2018-Jul-08 04:31N 35°28' E 139°40'0 0.0
2018-Jul-08 04:01N 35°28' E 139°40'0 0.0
2018-Jul-08 03:31N 35°28' E 139°40'0 0.0
2018-Jul-08 03:00N 35°28' E 139°40'0 0.0
2018-Jul-08 02:31N 35°28' E 139°40'0 0.0
2018-Jul-08 02:01N 35°28' E 139°40'4 7.0
2018-Jul-08 01:31N 35°30' E 139°44'0 0.4
2018-Jul-08 01:01N 35°30' E 139°44'2 4.8
2018-Jul-08 00:31N 35°28' E 139°42'2 4.5
2018-Jul-08 00:01N 35°27' E 139°45'0 0.1
2018-Jul-07 23:31N 35°27' E 139°45'1 2.9
2018-Jul-07 23:01N 35°28' E 139°45'0 0.0
2018-Jul-07 22:31N 35°28' E 139°45'  
Track history (hours):
 
Tides and Currents Weather Stations Pressure Air Temp Water Temp Dewpoint Dewpoint Depression Visibility Wind Speed Wind Dir Waves Ship Positions

Akashimaru

Last reported at 2018-Jul-17 22:30 UTC. Time now 2018-Jul-17 22:49 UTC.
Position N 35°28' E 139°40'.

Length 30 m; draft 3.9 m.

Type: Tug. MMSI: 431000267.

Date/timePositionNaut miles runAvg speedWind from/ knotsBaromVisibWave heightAir tempDewpointWater temp
2018-Jul-17 22:30N 35°28' E 139°40'1 1.4
2018-Jul-17 22:01N 35°27' E 139°41'1 1.6
2018-Jul-17 21:30N 35°27' E 139°42'2 3.7
2018-Jul-17 21:01N 35°25' E 139°43'3 6.3
2018-Jul-17 20:31N 35°27' E 139°40'0 0.1
2018-Jul-17 20:01N 35°27' E 139°40'0 0.0
2018-Jul-17 19:30N 35°27' E 139°40'0 0.0
2018-Jul-17 18:58N 35°27' E 139°40'0 0.0
2018-Jul-17 18:29N 35°27' E 139°40'0 0.0
2018-Jul-17 17:59N 35°27' E 139°40'0 0.0
2018-Jul-17 17:31N 35°27' E 139°40'0 0.0
2018-Jul-17 16:59N 35°27' E 139°40'0 0.0
2018-Jul-17 16:31N 35°27' E 139°40'0 0.0
2018-Jul-17 15:59N 35°27' E 139°40'0 0.0
2018-Jul-17 15:31N 35°27' E 139°40'0 0.0
2018-Jul-17 15:00N 35°27' E 139°40'0 0.0
2018-Jul-17 14:29N 35°27' E 139°40'0 0.0
2018-Jul-17 13:58N 35°27' E 139°40'0 0.0
2018-Jul-17 13:30N 35°27' E 139°40'0 0.0
2018-Jul-17 13:00N 35°27' E 139°40'0 0.0
2018-Jul-17 12:30N 35°27' E 139°40'0 0.0
2018-Jul-17 12:01N 35°27' E 139°40'0 0.0
2018-Jul-17 11:30N 35°27' E 139°40'0 0.0
2018-Jul-17 11:01N 35°27' E 139°40'0 0.0
2018-Jul-17 10:30N 35°27' E 139°40'0 0.0
2018-Jul-17 09:56N 35°27' E 139°40'1 3.4
2018-Jul-17 09:31N 35°28' E 139°41'1 2.1
2018-Jul-17 09:00N 35°28' E 139°42'1 2.0
2018-Jul-17 08:30N 35°27' E 139°43'1 1.2
2018-Jul-17 08:01N 35°27' E 139°43'1 2.3
2018-Jul-17 07:30N 35°27' E 139°42'0 0.0
2018-Jul-17 07:01N 35°27' E 139°42'0 0.0
2018-Jul-17 06:31N 35°27' E 139°42'0 0.0
2018-Jul-17 06:01N 35°27' E 139°42'0 0.0
2018-Jul-17 05:30N 35°27' E 139°42'0 0.0
2018-Jul-17 05:01N 35°27' E 139°42'1 2.0
2018-Jul-17 04:30N 35°28' E 139°43'1 2.0
2018-Jul-17 04:01N 35°28' E 139°44'0 0.0
2018-Jul-17 03:29N 35°28' E 139°44'0 0.1
2018-Jul-17 02:58N 35°28' E 139°44'1 2.1
2018-Jul-17 02:30N 35°27' E 139°44'1 1.6
2018-Jul-17 02:01N 35°27' E 139°45'1 2.7
2018-Jul-17 01:30N 35°28' E 139°45'0 0.1
2018-Jul-17 01:00N 35°28' E 139°45'0 0.0
2018-Jul-17 00:31N 35°28' E 139°45'3 2.9
2018-Jul-16 23:30N 35°31' E 139°46'0 0.0
2018-Jul-16 23:00N 35°31' E 139°46'2 4.0
2018-Jul-16 22:31N 35°30' E 139°44'5 9.2
2018-Jul-16 22:01N 35°27' E 139°40'0 0.2
2018-Jul-16 21:31N 35°27' E 139°40'0 0.0
2018-Jul-16 21:01N 35°27' E 139°40'0 0.0
2018-Jul-16 20:31N 35°27' E 139°40'0 0.0
2018-Jul-16 20:01N 35°27' E 139°40'0 0.0
2018-Jul-16 19:30N 35°27' E 139°40'0 0.0
2018-Jul-16 19:01N 35°27' E 139°40'0 0.0
2018-Jul-16 18:31N 35°27' E 139°40'0 0.0
2018-Jul-16 18:01N 35°27' E 139°40'0 0.0
2018-Jul-16 17:31N 35°27' E 139°40'0 0.0
2018-Jul-16 17:01N 35°27' E 139°40'0 0.0
2018-Jul-16 16:30N 35°27' E 139°40'0 0.0
2018-Jul-16 16:01N 35°27' E 139°40'0 0.0
2018-Jul-16 15:31N 35°27' E 139°40'0 0.0
2018-Jul-16 15:01N 35°27' E 139°40'0 0.0
2018-Jul-16 14:31N 35°27' E 139°40'0 0.0
2018-Jul-16 14:01N 35°27' E 139°40'0 0.0
2018-Jul-16 13:31N 35°27' E 139°40'0 0.0
2018-Jul-16 13:01N 35°27' E 139°40'0 0.0
2018-Jul-16 12:30N 35°27' E 139°40'0 0.0
2018-Jul-16 12:01N 35°27' E 139°40'0 0.0
2018-Jul-16 11:31N 35°27' E 139°40'0 0.0
2018-Jul-16 11:00N 35°27' E 139°40'0 0.0
2018-Jul-16 10:31N 35°27' E 139°40'0 0.0
2018-Jul-16 10:01N 35°27' E 139°40'0 0.0
2018-Jul-16 09:31N 35°27' E 139°40'0 0.0
2018-Jul-16 09:01N 35°27' E 139°40'0 0.0
2018-Jul-16 08:31N 35°27' E 139°40'0 0.0
2018-Jul-16 08:01N 35°27' E 139°40'0 0.0
2018-Jul-16 07:31N 35°27' E 139°40'0 0.0
2018-Jul-16 07:00N 35°27' E 139°40'0 0.0
2018-Jul-16 06:31N 35°27' E 139°40'0 0.0
2018-Jul-16 06:00N 35°27' E 139°40'0 0.0
2018-Jul-16 05:31N 35°27' E 139°40'0 0.0
2018-Jul-16 05:01N 35°27' E 139°40'0 0.0
2018-Jul-16 04:31N 35°27' E 139°40'0 0.0
2018-Jul-16 04:00N 35°27' E 139°40'0 0.0
2018-Jul-16 03:31N 35°27' E 139°40'0 0.0
2018-Jul-16 03:00N 35°27' E 139°40'0 0.0
2018-Jul-16 02:31N 35°27' E 139°40'0 0.0
2018-Jul-16 02:00N 35°27' E 139°40'0 0.0
2018-Jul-16 01:31N 35°27' E 139°40'0 0.0
2018-Jul-16 01:01N 35°27' E 139°40'0 0.0
2018-Jul-16 00:31N 35°27' E 139°40'0 0.0
2018-Jul-15 23:59N 35°27' E 139°40'0 0.0
2018-Jul-15 23:31N 35°27' E 139°40'0 0.0
2018-Jul-15 23:01N 35°27' E 139°40'0 0.0
2018-Jul-15 22:30N 35°27' E 139°40'0 0.0
2018-Jul-15 22:01N 35°27' E 139°40'0 0.0
2018-Jul-15 21:31N 35°27' E 139°40'0 0.0
2018-Jul-15 21:01N 35°27' E 139°40'0 0.0
2018-Jul-15 20:29N 35°27' E 139°40'0 0.0
2018-Jul-15 20:01N 35°27' E 139°40'0 0.0
2018-Jul-15 19:30N 35°27' E 139°40'0 0.0
2018-Jul-15 19:01N 35°27' E 139°40'0 0.0
2018-Jul-15 18:30N 35°27' E 139°40'0 0.0
2018-Jul-15 18:01N 35°27' E 139°40'0 0.0
2018-Jul-15 17:31N 35°27' E 139°40'0 0.0
2018-Jul-15 17:00N 35°27' E 139°40'0 0.0
2018-Jul-15 16:31N 35°27' E 139°40'0 0.0
2018-Jul-15 16:00N 35°27' E 139°40'0 0.0
2018-Jul-15 15:31N 35°27' E 139°40'0 0.0
2018-Jul-15 15:01N 35°27' E 139°40'0 0.0
2018-Jul-15 14:31N 35°27' E 139°40'0 0.0
2018-Jul-15 14:01N 35°27' E 139°40'0 0.0
2018-Jul-15 13:31N 35°27' E 139°40'0 0.0
2018-Jul-15 13:01N 35°27' E 139°40'0 0.0
2018-Jul-15 12:31N 35°27' E 139°40'0 0.0
2018-Jul-15 12:00N 35°27' E 139°40'0 0.0
2018-Jul-15 11:30N 35°27' E 139°40'0 0.0
2018-Jul-15 11:01N 35°27' E 139°40'0 0.0
2018-Jul-15 10:31N 35°27' E 139°40'0 0.0
2018-Jul-15 10:01N 35°27' E 139°40'0 0.0
2018-Jul-15 09:31N 35°27' E 139°40'0 0.0
2018-Jul-15 09:00N 35°27' E 139°40'0 0.0
2018-Jul-15 08:31N 35°27' E 139°40'0 0.0
2018-Jul-15 08:00N 35°27' E 139°40'0 0.0
2018-Jul-15 07:30N 35°27' E 139°40'0 0.0
2018-Jul-15 07:01N 35°27' E 139°40'0 0.0
2018-Jul-15 06:30N 35°27' E 139°40'0 0.0
2018-Jul-15 06:01N 35°27' E 139°40'0 0.0
2018-Jul-15 05:30N 35°27' E 139°40'0 0.0
2018-Jul-15 05:01N 35°27' E 139°40'0 0.0
2018-Jul-15 04:30N 35°27' E 139°40'0 0.0
2018-Jul-15 04:01N 35°27' E 139°40'0 0.0
2018-Jul-15 03:31N 35°27' E 139°40'0 0.0
2018-Jul-15 03:01N 35°27' E 139°40'0 0.0
2018-Jul-15 02:31N 35°27' E 139°40'0 0.0
2018-Jul-15 02:01N 35°27' E 139°40'0 0.0
2018-Jul-15 01:31N 35°27' E 139°40'0 0.0
2018-Jul-15 01:01N 35°27' E 139°40'0 0.0
2018-Jul-15 00:30N 35°27' E 139°40'0 0.0
2018-Jul-15 00:01N 35°27' E 139°40'0 0.0
2018-Jul-14 23:31N 35°27' E 139°40'1 2.0
2018-Jul-14 23:01N 35°26' E 139°41'1 2.2
2018-Jul-14 22:30N 35°26' E 139°42'2 4.8
2018-Jul-14 22:00N 35°27' E 139°45'1 2.9
2018-Jul-14 21:29N 35°28' E 139°44'1 2.0
2018-Jul-14 21:00N 35°27' E 139°43'2 3.5
2018-Jul-14 20:29N 35°28' E 139°41'1 1.2
2018-Jul-14 20:01N 35°28' E 139°40'0 0.0
2018-Jul-14 19:31N 35°28' E 139°40'0 0.0
2018-Jul-14 19:01N 35°28' E 139°40'0 0.0
2018-Jul-14 18:31N 35°28' E 139°40'0 0.0
2018-Jul-14 18:00N 35°28' E 139°40'0 0.0
2018-Jul-14 17:30N 35°28' E 139°40'2 3.0
2018-Jul-14 17:00N 35°26' E 139°41'0 0.1
2018-Jul-14 16:31N 35°26' E 139°41'1 2.1
2018-Jul-14 16:01N 35°27' E 139°41'0 0.3
2018-Jul-14 15:30N 35°27' E 139°41'1 1.3
2018-Jul-14 15:01N 35°28' E 139°40'0 0.0
2018-Jul-14 14:30N 35°28' E 139°40'0 0.0
2018-Jul-14 13:31N 35°28' E 139°40'0 0.0
2018-Jul-14 13:01N 35°28' E 139°40'0 0.0
2018-Jul-14 12:31N 35°28' E 139°40'1 1.7
2018-Jul-14 12:01N 35°27' E 139°41'0 0.7
2018-Jul-14 11:31N 35°27' E 139°41'1 2.0
2018-Jul-14 11:01N 35°27' E 139°42'0 0.6
2018-Jul-14 10:31N 35°27' E 139°42'0 0.0
2018-Jul-14 10:01N 35°27' E 139°42'1 1.7
2018-Jul-14 09:30N 35°28' E 139°42'0 0.9
2018-Jul-14 09:00N 35°28' E 139°41'1 1.4
2018-Jul-14 08:31N 35°27' E 139°42'0 0.0
2018-Jul-14 08:00N 35°27' E 139°42'0 0.1
2018-Jul-14 07:31N 35°27' E 139°42'1 2.1
2018-Jul-14 07:01N 35°27' E 139°41'0 0.2
2018-Jul-14 06:31N 35°27' E 139°41'1 1.2
2018-Jul-14 06:01N 35°28' E 139°41'1 2.7
2018-Jul-14 05:31N 35°27' E 139°39'0 0.7
2018-Jul-14 05:01N 35°27' E 139°39'0 0.2
2018-Jul-14 04:30N 35°27' E 139°39'1 1.5
2018-Jul-14 04:01N 35°27' E 139°40'0 0.0
2018-Jul-14 03:30N 35°27' E 139°40'0 0.0
2018-Jul-14 03:00N 35°27' E 139°40'0 0.0
2018-Jul-14 02:30N 35°27' E 139°40'0 0.0
2018-Jul-14 01:59N 35°27' E 139°40'0 0.0
2018-Jul-14 01:31N 35°27' E 139°40'0 0.0
2018-Jul-14 00:59N 35°27' E 139°40'0 0.0
2018-Jul-14 00:29N 35°27' E 139°40'0 0.0
2018-Jul-14 00:01N 35°27' E 139°40'0 0.0
2018-Jul-13 23:30N 35°27' E 139°40'0 0.0
2018-Jul-13 22:59N 35°27' E 139°40'0 0.0
2018-Jul-13 22:31N 35°27' E 139°40'0 0.0
2018-Jul-13 22:01N 35°27' E 139°40'0 0.0
2018-Jul-13 21:30N 35°27' E 139°40'0 0.0
2018-Jul-13 21:00N 35°27' E 139°40'0 0.0
2018-Jul-13 20:31N 35°27' E 139°40'0 0.0
2018-Jul-13 20:01N 35°27' E 139°40'0 0.0
2018-Jul-13 19:31N 35°27' E 139°40'0 0.0
2018-Jul-13 19:00N 35°27' E 139°40'0 0.0
2018-Jul-13 18:29N 35°27' E 139°40'0 0.0
2018-Jul-13 18:00N 35°27' E 139°40'0 0.0
2018-Jul-13 17:29N 35°27' E 139°40'0 0.0
2018-Jul-13 17:01N 35°27' E 139°40'0 0.0
2018-Jul-13 16:31N 35°27' E 139°40'0 0.0
2018-Jul-13 16:00N 35°27' E 139°40'0 0.0
2018-Jul-13 15:29N 35°27' E 139°40'0 0.0
2018-Jul-13 14:59N 35°27' E 139°40'0 0.0
2018-Jul-13 14:30N 35°27' E 139°40'0 0.0
2018-Jul-13 13:31N 35°27' E 139°40'0 0.0
2018-Jul-13 13:00N 35°27' E 139°40'0 0.0
2018-Jul-13 12:29N 35°27' E 139°40'0 0.0
2018-Jul-13 12:00N 35°27' E 139°40'0 0.0
2018-Jul-13 11:29N 35°27' E 139°40'0 0.0
2018-Jul-13 11:00N 35°27' E 139°40'0 0.0
2018-Jul-13 10:30N 35°27' E 139°40'0 0.0
2018-Jul-13 10:01N 35°27' E 139°40'0 0.0
2018-Jul-13 09:28N 35°27' E 139°40'0 0.0
2018-Jul-13 09:00N 35°27' E 139°40'0 0.0
2018-Jul-13 08:30N 35°27' E 139°40'0 0.0
2018-Jul-13 08:01N 35°27' E 139°40'0 0.0
2018-Jul-13 07:31N 35°27' E 139°40'0 0.0
2018-Jul-13 07:00N 35°27' E 139°40'0 0.0
2018-Jul-13 06:29N 35°27' E 139°40'0 0.0
2018-Jul-13 06:01N 35°27' E 139°40'1 2.5
2018-Jul-13 05:31N 35°28' E 139°40'1 2.4
2018-Jul-13 05:01N 35°27' E 139°39'0 0.0
2018-Jul-13 04:30N 35°27' E 139°39'0 0.0
2018-Jul-13 04:01N 35°27' E 139°39'0 0.0
2018-Jul-13 03:31N 35°27' E 139°39'0 0.1
2018-Jul-13 03:01N 35°27' E 139°39'4 8.8
2018-Jul-13 02:30N 35°30' E 139°44'1 1.7
2018-Jul-13 02:01N 35°30' E 139°45'0 0.9
2018-Jul-13 01:30N 35°30' E 139°44'2 4.9
2018-Jul-13 01:01N 35°28' E 139°42'4 6.9
2018-Jul-13 00:30N 35°28' E 139°46'1 2.2
2018-Jul-13 00:00N 35°29' E 139°47'1 1.0
2018-Jul-12 23:29N 35°29' E 139°46'1 2.6
2018-Jul-12 23:00N 35°30' E 139°47'1 2.9
2018-Jul-12 22:30N 35°32' E 139°46'2 4.3
2018-Jul-12 22:01N 35°30' E 139°44'5 9.1
2018-Jul-12 21:31N 35°27' E 139°40'0 0.1
2018-Jul-12 21:01N 35°27' E 139°40'0 0.0
2018-Jul-12 20:31N 35°27' E 139°40'0 0.0
2018-Jul-12 20:00N 35°27' E 139°40'0 0.0
2018-Jul-12 19:31N 35°27' E 139°40'0 0.0
2018-Jul-12 19:00N 35°27' E 139°40'0 0.0
2018-Jul-12 18:30N 35°27' E 139°40'0 0.0
2018-Jul-12 18:01N 35°27' E 139°40'0 0.0
2018-Jul-12 17:30N 35°27' E 139°40'0 0.0
2018-Jul-12 17:01N 35°27' E 139°40'0 0.0
2018-Jul-12 16:31N 35°27' E 139°40'0 0.0
2018-Jul-12 15:58N 35°27' E 139°40'0 0.0
2018-Jul-12 15:31N 35°27' E 139°40'0 0.0
2018-Jul-12 15:00N 35°27' E 139°40'0 0.0
2018-Jul-12 14:30N 35°27' E 139°40'0 0.0
2018-Jul-12 13:59N 35°27' E 139°40'0 0.0
2018-Jul-12 13:31N 35°27' E 139°40'0 0.0
2018-Jul-12 13:01N 35°27' E 139°40'0 0.0
2018-Jul-12 12:31N 35°27' E 139°40'0 0.0
2018-Jul-12 12:00N 35°27' E 139°40'0 0.0
2018-Jul-12 11:31N 35°27' E 139°40'0 0.0
2018-Jul-12 11:00N 35°27' E 139°40'0 0.0
2018-Jul-12 10:31N 35°27' E 139°40'0 0.0
2018-Jul-12 10:00N 35°27' E 139°40'0 0.0
2018-Jul-12 09:31N 35°27' E 139°40'0 0.0
2018-Jul-12 09:01N 35°27' E 139°40'0 0.0
2018-Jul-12 08:30N 35°27' E 139°40'0 0.0
2018-Jul-12 08:00N 35°27' E 139°40'0 0.9
2018-Jul-12 07:30N 35°27' E 139°40'5 9.2
2018-Jul-12 07:01N 35°30' E 139°44'1 2.2
2018-Jul-12 06:30N 35°30' E 139°46'3 5.0
2018-Jul-12 06:01N 35°29' E 139°43'0 0.0
2018-Jul-12 05:30N 35°29' E 139°43'1 1.3
2018-Jul-12 05:01N 35°29' E 139°42'1 2.9
2018-Jul-12 04:31N 35°28' E 139°42'0 0.0
2018-Jul-12 04:00N 35°28' E 139°42'0 1.0
2018-Jul-12 03:30N 35°28' E 139°42'1 1.9
2018-Jul-12 03:00N 35°27' E 139°43'0 0.8
2018-Jul-12 02:31N 35°27' E 139°43'2 3.9
2018-Jul-12 02:01N 35°28' E 139°40'0 0.0
2018-Jul-12 01:31N 35°28' E 139°40'0 0.0
2018-Jul-12 01:00N 35°28' E 139°40'0 0.0
2018-Jul-12 00:31N 35°28' E 139°40'0 0.0
2018-Jul-12 00:01N 35°28' E 139°40'0 0.0
2018-Jul-11 23:31N 35°28' E 139°40'1 2.8
2018-Jul-11 23:01N 35°27' E 139°39'4 8.0
2018-Jul-11 22:31N 35°28' E 139°44'4 7.3
2018-Jul-11 22:00N 35°30' E 139°47'2 3.2
2018-Jul-11 21:30N 35°32' E 139°46'2 5.0
2018-Jul-11 21:00N 35°30' E 139°44'4 8.6
2018-Jul-11 20:30N 35°27' E 139°40'0 0.1
2018-Jul-11 20:01N 35°27' E 139°40'0 0.0
2018-Jul-11 19:31N 35°27' E 139°40'0 0.0
2018-Jul-11 19:01N 35°27' E 139°40'0 0.0
2018-Jul-11 18:31N 35°27' E 139°40'0 0.0
2018-Jul-11 18:01N 35°27' E 139°40'0 0.0
2018-Jul-11 17:31N 35°27' E 139°40'0 0.0
2018-Jul-11 17:01N 35°27' E 139°40'0 0.0
2018-Jul-11 16:31N 35°27' E 139°40'0 0.0
2018-Jul-11 16:01N 35°27' E 139°40'0 0.0
2018-Jul-11 15:31N 35°27' E 139°40'0 0.0
2018-Jul-11 15:01N 35°27' E 139°40'0 0.0
2018-Jul-11 14:31N 35°27' E 139°40'0 0.0
2018-Jul-11 14:01N 35°27' E 139°40'0 0.0
2018-Jul-11 13:31N 35°27' E 139°40'0 0.0
2018-Jul-11 13:01N 35°27' E 139°40'0 0.0
2018-Jul-11 12:31N 35°27' E 139°40'0 0.0
2018-Jul-11 12:01N 35°27' E 139°40'0 0.0
2018-Jul-11 11:31N 35°27' E 139°40'0 0.0
2018-Jul-11 11:01N 35°27' E 139°40'0 0.0
2018-Jul-11 10:31N 35°27' E 139°40'0 0.0
2018-Jul-11 10:01N 35°27' E 139°40'0 0.0
2018-Jul-11 09:31N 35°27' E 139°40'0 0.0
2018-Jul-11 09:01N 35°27' E 139°40'0 0.0
2018-Jul-11 08:30N 35°27' E 139°40'0 0.0
2018-Jul-11 08:00N 35°27' E 139°40'0 0.0
2018-Jul-11 07:31N 35°27' E 139°40'0 0.0
2018-Jul-11 07:00N 35°27' E 139°40'0 0.0
2018-Jul-11 06:31N 35°27' E 139°40'0 0.0
2018-Jul-11 06:01N 35°27' E 139°40'0 0.5
2018-Jul-11 05:31N 35°27' E 139°40'1 2.9
2018-Jul-11 05:00N 35°27' E 139°41'2 3.8
2018-Jul-11 04:30N 35°26' E 139°43'1 2.4
2018-Jul-11 04:01N 35°27' E 139°42'0 0.8
2018-Jul-11 03:31N 35°27' E 139°42'1 2.5
2018-Jul-11 03:00N 35°28' E 139°42'4 7.1
2018-Jul-11 02:30N 35°30' E 139°45'0 0.5
2018-Jul-11 02:00N 35°30' E 139°45'2 4.6
2018-Jul-11 01:31N 35°29' E 139°43'2 3.6
2018-Jul-11 01:01N 35°27' E 139°42'0 0.0
2018-Jul-11 00:31N 35°27' E 139°42'0 0.4
2018-Jul-11 00:01N 35°28' E 139°42'3 5.5
2018-Jul-10 23:29N 35°30' E 139°44'0 0.5
2018-Jul-10 23:00N 35°30' E 139°44'2 4.6
2018-Jul-10 22:31N 35°28' E 139°42'3 6.3
2018-Jul-10 22:01N 35°27' E 139°46'1 1.8
2018-Jul-10 21:31N 35°28' E 139°47'2 3.2
2018-Jul-10 21:01N 35°27' E 139°45'4 8.3
2018-Jul-10 20:30N 35°27' E 139°40'0 0.1
2018-Jul-10 20:00N 35°27' E 139°40'0 0.0
2018-Jul-10 19:29N 35°27' E 139°40'0 0.0
2018-Jul-10 19:00N 35°27' E 139°40'0 0.0
2018-Jul-10 18:31N 35°27' E 139°40'0 0.0
2018-Jul-10 18:01N 35°27' E 139°40'0 0.0
2018-Jul-10 17:31N 35°27' E 139°40'0 0.0
2018-Jul-10 17:01N 35°27' E 139°40'0 0.0
2018-Jul-10 16:30N 35°27' E 139°40'0 0.0
2018-Jul-10 16:01N 35°27' E 139°40'0 0.0
2018-Jul-10 15:31N 35°27' E 139°40'0 0.0
2018-Jul-10 15:01N 35°27' E 139°40'0 0.0
2018-Jul-10 14:31N 35°27' E 139°40'0 0.0
2018-Jul-10 14:01N 35°27' E 139°40'0 0.0
2018-Jul-10 13:31N 35°27' E 139°40'0 0.0
2018-Jul-10 12:59N 35°27' E 139°40'0 0.0
2018-Jul-10 12:31N 35°27' E 139°40'0 0.0
2018-Jul-10 12:00N 35°27' E 139°40'0 0.0
2018-Jul-10 11:31N 35°27' E 139°40'0 0.0
2018-Jul-10 11:01N 35°27' E 139°40'0 0.0
2018-Jul-10 10:31N 35°27' E 139°40'0 0.0
2018-Jul-10 10:01N 35°27' E 139°40'0 0.0
2018-Jul-10 09:30N 35°27' E 139°40'2 3.7
2018-Jul-10 09:01N 35°29' E 139°39'0 0.3
2018-Jul-10 08:30N 35°28' E 139°39'0 0.0
2018-Jul-10 08:00N 35°28' E 139°39'2 3.6
2018-Jul-10 07:31N 35°27' E 139°40'0 0.0
2018-Jul-10 07:01N 35°27' E 139°40'0 0.0
2018-Jul-10 06:31N 35°27' E 139°40'0 0.0
2018-Jul-10 06:01N 35°27' E 139°40'0 0.0
2018-Jul-10 05:30N 35°27' E 139°40'3 6.3
2018-Jul-10 05:01N 35°29' E 139°42'4 8.4
2018-Jul-10 04:30N 35°30' E 139°48'2 3.0
2018-Jul-10 04:01N 35°31' E 139°46'2 4.5
2018-Jul-10 03:30N 35°30' E 139°44'3 6.8
2018-Jul-10 03:00N 35°28' E 139°40'0 0.0
2018-Jul-10 02:31N 35°28' E 139°40'0 0.0
2018-Jul-10 02:00N 35°28' E 139°40'0 0.0
2018-Jul-10 01:30N 35°28' E 139°40'0 0.0
2018-Jul-10 01:01N 35°28' E 139°40'0 0.0
2018-Jul-10 00:31N 35°28' E 139°40'1 2.9
2018-Jul-10 00:01N 35°27' E 139°39'4 7.9
2018-Jul-09 23:30N 35°29' E 139°43'1 2.0
2018-Jul-09 23:01N 35°30' E 139°44'1 2.9
2018-Jul-09 22:30N 35°29' E 139°42'3 6.8
2018-Jul-09 22:00N 35°26' E 139°44'2 5.0
2018-Jul-09 21:30N 35°27' E 139°41'1 3.0
2018-Jul-09 21:01N 35°27' E 139°40'0 0.1
2018-Jul-09 20:31N 35°27' E 139°40'0 0.0
2018-Jul-09 20:01N 35°27' E 139°40'0 0.0
2018-Jul-09 19:31N 35°27' E 139°40'0 0.0
2018-Jul-09 19:01N 35°27' E 139°40'0 0.0
2018-Jul-09 18:30N 35°27' E 139°40'0 0.0
2018-Jul-09 18:00N 35°27' E 139°40'0 0.0
2018-Jul-09 17:30N 35°27' E 139°40'0 0.0
2018-Jul-09 17:00N 35°27' E 139°40'0 0.0
2018-Jul-09 16:31N 35°27' E 139°40'0 0.0
2018-Jul-09 16:01N 35°27' E 139°40'0 0.0
2018-Jul-09 15:31N 35°27' E 139°40'0 0.0
2018-Jul-09 15:01N 35°27' E 139°40'0 0.0
2018-Jul-09 14:30N 35°27' E 139°40'0 0.0
2018-Jul-09 14:01N 35°27' E 139°40'0 0.0
2018-Jul-09 13:31N 35°27' E 139°40'0 0.0
2018-Jul-09 13:01N 35°27' E 139°40'0 0.0
2018-Jul-09 12:31N 35°27' E 139°40'0 0.0
2018-Jul-09 12:01N 35°27' E 139°40'0 0.8
2018-Jul-09 11:30N 35°27' E 139°40'2 3.4
2018-Jul-09 11:01N 35°29' E 139°40'1 1.1
2018-Jul-09 10:31N 35°29' E 139°40'1 3.0
2018-Jul-09 10:01N 35°27' E 139°39'0 0.0
2018-Jul-09 09:30N 35°27' E 139°39'3 6.9
2018-Jul-09 09:00N 35°24' E 139°42'3 6.1
2018-Jul-09 08:30N 35°24' E 139°38'0 0.0
2018-Jul-09 08:01N 35°24' E 139°38'0 0.5
2018-Jul-09 07:30N 35°24' E 139°38'0 0.9
2018-Jul-09 07:01N 35°23' E 139°38'0 0.3
2018-Jul-09 06:29N 35°23' E 139°38'0 0.3
2018-Jul-09 06:00N 35°23' E 139°38'1 1.1
2018-Jul-09 05:31N 35°24' E 139°39'4 7.3
2018-Jul-09 05:00N 35°27' E 139°41'1 2.3
2018-Jul-09 04:31N 35°28' E 139°40'0 0.0
2018-Jul-09 04:01N 35°28' E 139°40'0 0.0
2018-Jul-09 03:31N 35°28' E 139°40'0 0.0
2018-Jul-09 03:00N 35°28' E 139°40'0 0.0
2018-Jul-09 02:30N 35°28' E 139°40'0 0.0
2018-Jul-09 02:00N 35°28' E 139°40'0 0.0
2018-Jul-09 01:30N 35°28' E 139°40'1 2.8
2018-Jul-09 01:00N 35°29' E 139°39'3 5.7
2018-Jul-09 00:31N 35°27' E 139°42'1 2.8
2018-Jul-09 00:01N 35°28' E 139°41'0 0.0
2018-Jul-08 23:31N 35°28' E 139°41'2 3.5
2018-Jul-08 23:00N 35°28' E 139°39'0 0.0
2018-Jul-08 22:30N 35°29' E 139°39'1 2.2
2018-Jul-08 22:01N 35°28' E 139°40'2 3.3
2018-Jul-08 21:30N 35°27' E 139°42'0 0.2
2018-Jul-08 21:00N 35°27' E 139°41'1 2.6
2018-Jul-08 20:30N 35°27' E 139°40'0 0.0
2018-Jul-08 20:01N 35°27' E 139°40'0 0.0
2018-Jul-08 19:31N 35°27' E 139°40'0 0.0
2018-Jul-08 19:00N 35°27' E 139°40'0 0.0
2018-Jul-08 18:31N 35°27' E 139°40'0 0.0
2018-Jul-08 18:01N 35°27' E 139°40'0 0.0
2018-Jul-08 17:28N 35°27' E 139°40'0 0.0
2018-Jul-08 17:00N 35°27' E 139°40'0 0.0
2018-Jul-08 16:30N 35°27' E 139°40'0 0.0
2018-Jul-08 16:01N 35°27' E 139°40'0 0.0
2018-Jul-08 15:31N 35°27' E 139°40'0 0.0
2018-Jul-08 15:01N 35°27' E 139°40'0 0.0
2018-Jul-08 14:31N 35°27' E 139°40'0 0.0
2018-Jul-08 13:59N 35°27' E 139°40'0 0.0
2018-Jul-08 13:31N 35°27' E 139°40'0 0.0
2018-Jul-08 13:01N 35°27' E 139°40'0 0.0
2018-Jul-08 12:30N 35°27' E 139°40'0 0.0
2018-Jul-08 12:00N 35°27' E 139°40'0 0.0
2018-Jul-08 11:31N 35°27' E 139°40'0 0.0
2018-Jul-08 11:01N 35°27' E 139°40'0 0.0
2018-Jul-08 10:29N 35°27' E 139°40'0 0.0
2018-Jul-08 09:59N 35°27' E 139°40'0 0.0
2018-Jul-08 09:31N 35°27' E 139°40'0 0.7
2018-Jul-08 09:00N 35°27' E 139°40'4 7.4
2018-Jul-08 08:31N 35°24' E 139°41'2 4.3
2018-Jul-08 08:01N 35°25' E 139°39'0 0.5
2018-Jul-08 07:31N 35°24' E 139°39'2 3.1
2018-Jul-08 07:01N 35°23' E 139°41'0 0.9
2018-Jul-08 06:31N 35°23' E 139°41'4 7.6
2018-Jul-08 06:01N 35°27' E 139°41'1 2.6
2018-Jul-08 05:31N 35°28' E 139°40'0 0.0
2018-Jul-08 05:01N 35°28' E 139°40'0 0.0
2018-Jul-08 04:31N 35°28' E 139°40'0 0.0
2018-Jul-08 04:01N 35°28' E 139°40'0 0.0
2018-Jul-08 03:31N 35°28' E 139°40'0 0.0
2018-Jul-08 03:00N 35°28' E 139°40'0 0.0
2018-Jul-08 02:31N 35°28' E 139°40'0 0.0
2018-Jul-08 02:01N 35°28' E 139°40'4 7.0
2018-Jul-08 01:31N 35°30' E 139°44'0 0.4
2018-Jul-08 01:01N 35°30' E 139°44'2 4.8
2018-Jul-08 00:31N 35°28' E 139°42'2 4.5
2018-Jul-08 00:01N 35°27' E 139°45'0 0.1
2018-Jul-07 23:31N 35°27' E 139°45'1 2.9
2018-Jul-07 23:01N 35°28' E 139°45'0 0.0
2018-Jul-07 22:31N 35°28' E 139°45'  

Dump ship's entire track history